Warman, Canada
Current Conditions -  °F | °C
As of 10:00 PM on Tuesday 21 Oct 2014 (Local Time) from CYXE Reporting Station
Broken Clouds Broken Clouds  
Wind Chill: 52°   Ceiling: 20000
Heat Index: 52°   Visibility: 15mi
Dew Point: 39°   Wind: 9mph
Humidity: 62%   Direction: 330°NNW
Pressure: 29.58"   Gusts: NA
Location:  52.32°N, 106.57°W
Report Text: CYXE 220400Z 33008KT 15SM SCT110 BKN200 11/04 A2958 RMK AC3CI2 SLP029 DENSITY ALT 1900FT
Loading
Personal Weather Stations






























Interactive Weather Map
Tropical Storm Tracking
New forecast layout! Learn more

10-Day Weather Forecast

Advertisements
Track Severe Weather on mobile